Aviation Digital Data Service (ADDS)

Output produced by METARs form (0937 UTC 18 September 2014)
found at http://aviationweather.gov/adds/metars/
 
KHKY 180926Z 1809/1906 00000KT 4SM BR OVC009 
     FM181400 00000KT P6SM BKN045 
     FM190500 00000KT P6SM SCT013